Time,TemperatureF,DewpointF,PressureIn,WindDirection,WindDirectionDegrees,WindSpeedMPH,WindSpeedGustMPH,Humidity,HourlyPrecipIn,Conditions,Clouds,dailyrainin,SoftwareType,DateUTC
2013-01-16 00:00:00,76.4,74.0,29.88,East,94,5.0,9.0,91,0.00,,,0.00,weatherlink.com 1.10,2013-01-16 04:00:00,
2013-01-16 00:15:00,76.6,74.0,29.88,ENE,74,5.0,10.0,90,0.00,,,0.00,weatherlink.com 1.10,2013-01-16 04:15:00,
2013-01-16 00:30:00,76.7,73.0,29.88,NE,46,7.0,10.0,88,0.00,,,0.00,weatherlink.com 1.10,2013-01-16 04:30:00,
2013-01-16 00:45:00,76.2,73.0,29.87,NE,53,4.0,14.0,90,0.01,,,0.01,weatherlink.com 1.10,2013-01-16 04:45:00,
2013-01-16 01:15:00,75.4,73.0,29.87,ENE,64,5.0,12.0,91,0.01,,,0.01,weatherlink.com 1.10,2013-01-16 05:15:00,
2013-01-16 01:30:00,75.6,73.0,29.87,NE,56,4.0,9.0,91,0.01,,,0.01,weatherlink.com 1.10,2013-01-16 05:30:00,
2013-01-16 01:45:00,76.0,73.0,29.86,NE,40,6.0,10.0,90,0.00,,,0.01,weatherlink.com 1.10,2013-01-16 05:45:00,
2013-01-16 02:00:00,76.1,72.0,29.86,ENE,76,5.0,10.0,88,0.00,,,0.01,weatherlink.com 1.10,2013-01-16 06:00:00,
2013-01-16 02:15:00,76.3,72.0,29.86,ENE,63,4.0,10.0,87,0.00,,,0.01,weatherlink.com 1.10,2013-01-16 06:15:00,
2013-01-16 02:30:00,76.1,72.0,29.86,ENE,60,2.0,6.0,88,0.00,,,0.01,weatherlink.com 1.10,2013-01-16 06:30:00,
2013-01-16 02:45:00,75.9,72.0,29.86,NE,52,3.0,5.0,87,0.00,,,0.01,weatherlink.com 1.10,2013-01-16 06:45:00,
2013-01-16 03:00:00,76.1,72.0,29.86,ENE,74,2.0,8.0,86,0.00,,,0.01,weatherlink.com 1.10,2013-01-16 07:00:00,
2013-01-16 03:15:00,76.6,72.0,29.86,East,93,5.0,8.0,85,0.00,,,0.01,weatherlink.com 1.10,2013-01-16 07:15:00,
2013-01-16 03:30:00,77.0,72.0,29.86,ENE,75,4.0,10.0,84,0.00,,,0.01,weatherlink.com 1.10,2013-01-16 07:30:00,
2013-01-16 03:45:00,77.2,72.0,29.86,NE,42,5.0,9.0,84,0.00,,,0.01,weatherlink.com 1.10,2013-01-16 07:45:00,
2013-01-16 04:00:00,77.0,73.0,29.86,NNE,18,2.0,10.0,87,0.03,,,0.04,weatherlink.com 1.10,2013-01-16 08:00:00,
2013-01-16 04:15:00,75.6,73.0,29.86,NNE,32,1.0,8.0,91,0.04,,,0.05,weatherlink.com 1.10,2013-01-16 08:15:00,
2013-01-16 04:30:00,75.1,73.0,29.87,NE,36,3.0,8.0,92,0.04,,,0.05,weatherlink.com 1.10,2013-01-16 08:30:00,
2013-01-16 04:45:00,74.8,72.0,29.87,NE,35,6.0,10.0,92,0.04,,,0.05,weatherlink.com 1.10,2013-01-16 08:45:00,
2013-01-16 05:00:00,74.5,72.0,29.88,East,89,5.0,24.0,90,0.01,,,0.05,weatherlink.com 1.10,2013-01-16 09:00:00,
2013-01-16 05:16:00,73.5,71.0,29.88,ENE,63,7.0,11.0,92,0.00,,,0.05,weatherlink.com 1.10,2013-01-16 09:16:00,
2013-01-16 05:31:00,73.6,72.0,29.88,ENE,77,1.0,11.0,93,0.00,,,0.05,weatherlink.com 1.10,2013-01-16 09:31:00,
2013-01-16 05:46:00,73.5,71.0,29.89,ENE,72,9.0,10.0,93,0.00,,,0.05,weatherlink.com 1.10,2013-01-16 09:46:00,
2013-01-16 06:01:00,73.6,71.0,29.89,ENE,58,9.0,15.0,92,0.00,,,0.05,weatherlink.com 1.10,2013-01-16 10:01:00,
2013-01-16 06:16:00,72.8,71.0,29.90,NE,41,2.0,11.0,93,0.01,,,0.06,weatherlink.com 1.10,2013-01-16 10:16:00,
2013-01-16 06:31:00,72.5,71.0,29.90,NE,37,4.0,8.0,94,0.01,,,0.06,weatherlink.com 1.10,2013-01-16 10:31:00,
2013-01-16 06:46:00,72.6,71.0,29.91,NNE,14,7.0,8.0,94,0.01,,,0.06,weatherlink.com 1.10,2013-01-16 10:46:00,
2013-01-16 07:01:00,72.8,71.0,29.91,NE,34,2.0,8.0,94,0.01,,,0.06,weatherlink.com 1.10,2013-01-16 11:01:00,
2013-01-16 07:16:00,73.0,72.0,29.91,North,355,2.0,5.0,95,0.00,,,0.06,weatherlink.com 1.10,2013-01-16 11:16:00,
2013-01-16 07:31:00,73.1,72.0,29.92,North,360,1.0,5.0,95,0.00,,,0.06,weatherlink.com 1.10,2013-01-16 11:31:00,
2013-01-16 07:46:00,74.0,73.0,29.92,North,360,1.0,3.0,96,0.00,,,0.06,weatherlink.com 1.10,2013-01-16 11:46:00,
2013-01-16 08:01:00,74.8,73.0,29.93,ENE,76,3.0,8.0,94,0.00,,,0.06,weatherlink.com 1.10,2013-01-16 12:01:00,
2013-01-16 08:16:00,77.0,73.0,29.93,ENE,67,3.0,10.0,87,0.00,,,0.06,weatherlink.com 1.10,2013-01-16 12:16:00,
2013-01-16 08:31:00,78.6,73.0,29.94,NE,46,4.0,11.0,82,0.00,,,0.06,weatherlink.com 1.10,2013-01-16 12:31:00,
2013-01-16 08:46:00,79.4,72.0,29.94,East,88,7.0,14.0,79,0.00,,,0.06,weatherlink.com 1.10,2013-01-16 12:46:00,
2013-01-16 09:01:00,80.1,73.0,29.95,ENE,71,7.0,14.0,78,0.00,,,0.06,weatherlink.com 1.10,2013-01-16 13:01:00,
2013-01-16 09:16:00,81.0,73.0,29.95,ENE,59,5.0,15.0,76,0.01,,,0.07,weatherlink.com 1.10,2013-01-16 13:16:00,
2013-01-16 09:31:00,81.0,73.0,29.95,ENE,57,7.0,16.0,76,0.01,,,0.07,weatherlink.com 1.10,2013-01-16 13:31:00,
2013-01-16 09:46:00,80.7,72.0,29.96,ENE,75,7.0,17.0,75,0.01,,,0.07,weatherlink.com 1.10,2013-01-16 13:46:00,
2013-01-16 10:01:00,81.2,73.0,29.95,ENE,62,9.0,17.0,75,0.01,,,0.07,weatherlink.com 1.10,2013-01-16 14:01:00,
2013-01-16 10:16:00,81.9,73.0,29.95,East,100,7.0,17.0,74,0.00,,,0.07,weatherlink.com 1.10,2013-01-16 14:16:00,
2013-01-16 10:31:00,82.6,73.0,29.95,East,101,10.0,15.0,73,0.00,,,0.07,weatherlink.com 1.10,2013-01-16 14:31:00,
2013-01-16 10:46:00,82.3,72.0,29.94,NE,48,7.0,14.0,72,0.00,,,0.07,weatherlink.com 1.10,2013-01-16 14:46:00,
2013-01-16 11:01:00,82.6,73.0,29.94,East,79,7.0,16.0,72,0.00,,,0.07,weatherlink.com 1.10,2013-01-16 15:01:00,
2013-01-16 11:16:00,82.6,73.0,29.94,ESE,111,7.0,18.0,73,0.00,,,0.07,weatherlink.com 1.10,2013-01-16 15:16:00,
2013-01-16 11:31:00,83.2,73.0,29.93,East,94,5.0,16.0,71,0.00,,,0.07,weatherlink.com 1.10,2013-01-16 15:31:00,
2013-01-16 11:46:00,82.3,72.0,29.93,East,93,10.0,13.0,72,0.00,,,0.07,weatherlink.com 1.10,2013-01-16 15:46:00,
2013-01-16 12:01:00,80.8,72.0,29.92,ESE,104,3.0,16.0,75,0.00,,,0.07,weatherlink.com 1.10,2013-01-16 16:01:00,
2013-01-16 12:16:00,79.8,73.0,29.92,ENE,63,4.0,12.0,79,0.00,,,0.07,weatherlink.com 1.10,2013-01-16 16:16:00,
2013-01-16 12:31:00,81.1,73.0,29.91,East,96,7.0,17.0,75,0.00,,,0.07,weatherlink.com 1.10,2013-01-16 16:31:00,
2013-01-16 12:46:00,83.1,73.0,29.90,ENE,65,10.0,16.0,71,0.00,,,0.07,weatherlink.com 1.10,2013-01-16 16:46:00,
2013-01-16 13:01:00,82.9,73.0,29.89,SE,126,7.0,17.0,72,0.00,,,0.07,weatherlink.com 1.10,2013-01-16 17:01:00,
2013-01-16 13:16:00,83.2,72.0,29.89,ESE,117,8.0,12.0,70,0.00,,,0.07,weatherlink.com 1.10,2013-01-16 17:16:00,
2013-01-16 13:31:00,83.2,72.0,29.88,East,101,6.0,17.0,69,0.00,,,0.07,weatherlink.com 1.10,2013-01-16 17:31:00,
2013-01-16 13:46:00,83.0,72.0,29.87,ENE,62,9.0,15.0,69,0.00,,,0.07,weatherlink.com 1.10,2013-01-16 17:46:00,
2013-01-16 14:01:00,83.6,72.0,29.87,East,79,10.0,13.0,68,0.00,,,0.07,weatherlink.com 1.10,2013-01-16 18:01:00,
2013-01-16 14:16:00,83.3,72.0,29.86,East,96,9.0,14.0,69,0.00,,,0.07,weatherlink.com 1.10,2013-01-16 18:16:00,
2013-01-16 14:32:00,83.2,73.0,29.85,ESE,117,10.0,13.0,71,0.00,,,0.07,weatherlink.com 1.10,2013-01-16 18:32:00,
2013-01-16 14:47:00,83.3,72.0,29.85,SSE,167,6.0,14.0,69,0.00,,,0.07,weatherlink.com 1.10,2013-01-16 18:47:00,
2013-01-16 15:02:00,81.6,72.0,29.84,East,89,7.0,12.0,72,0.00,,,0.07,weatherlink.com 1.10,2013-01-16 19:02:00,
2013-01-16 15:17:00,81.4,72.0,29.84,ESE,119,3.0,13.0,72,0.00,,,0.07,weatherlink.com 1.10,2013-01-16 19:17:00,
2013-01-16 15:32:00,81.2,73.0,29.84,ESE,116,3.0,11.0,75,0.00,,,0.07,weatherlink.com 1.10,2013-01-16 19:32:00,
2013-01-16 15:47:00,82.0,72.0,29.85,East,84,7.0,13.0,72,0.00,,,0.07,weatherlink.com 1.10,2013-01-16 19:47:00,
2013-01-16 16:02:00,81.8,72.0,29.85,NE,42,7.0,15.0,73,0.00,,,0.07,weatherlink.com 1.10,2013-01-16 20:02:00,
2013-01-16 16:17:00,80.9,72.0,29.85,East,88,8.0,13.0,73,0.00,,,0.07,weatherlink.com 1.10,2013-01-16 20:17:00,
2013-01-16 16:32:00,81.4,72.0,29.85,East,96,10.0,12.0,73,0.00,,,0.07,weatherlink.com 1.10,2013-01-16 20:32:00,
2013-01-16 16:47:00,81.9,72.0,29.86,East,94,7.0,13.0,73,0.00,,,0.07,weatherlink.com 1.10,2013-01-16 20:47:00,
2013-01-16 17:02:00,81.3,71.0,29.86,ENE,63,4.0,13.0,72,0.00,,,0.07,weatherlink.com 1.10,2013-01-16 21:02:00,
2013-01-16 17:17:00,81.1,71.0,29.86,ENE,67,5.0,11.0,72,0.00,,,0.07,weatherlink.com 1.10,2013-01-16 21:17:00,
2013-01-16 17:32:00,80.6,71.0,29.86,NE,55,2.0,12.0,73,0.00,,,0.07,weatherlink.com 1.10,2013-01-16 21:32:00,
2013-01-16 17:47:00,80.3,71.0,29.86,ENE,75,2.0,11.0,74,0.00,,,0.07,weatherlink.com 1.10,2013-01-16 21:47:00,
2013-01-16 18:02:00,79.6,71.0,29.87,ENE,66,4.0,11.0,76,0.00,,,0.07,weatherlink.com 1.10,2013-01-16 22:02:00,
2013-01-16 18:17:00,79.2,71.0,29.87,East,83,2.0,10.0,77,0.00,,,0.07,weatherlink.com 1.10,2013-01-16 22:17:00,
2013-01-16 18:32:00,78.9,72.0,29.87,ENE,67,2.0,9.0,78,0.00,,,0.07,weatherlink.com 1.10,2013-01-16 22:32:00,
2013-01-16 18:47:00,78.6,72.0,29.88,ENE,71,2.0,8.0,79,0.00,,,0.07,weatherlink.com 1.10,2013-01-16 22:47:00,
2013-01-16 19:02:00,78.3,71.0,29.88,East,92,3.0,11.0,79,0.00,,,0.07,weatherlink.com 1.10,2013-01-16 23:02:00,
2013-01-16 19:17:00,78.0,71.0,29.89,ESE,103,5.0,8.0,80,0.00,,,0.07,weatherlink.com 1.10,2013-01-16 23:17:00,
2013-01-16 19:32:00,77.8,72.0,29.89,ESE,111,2.0,7.0,81,0.00,,,0.07,weatherlink.com 1.10,2013-01-16 23:32:00,
2013-01-16 19:47:00,77.7,72.0,29.89,ENE,67,5.0,5.0,82,0.00,,,0.07,weatherlink.com 1.10,2013-01-16 23:47:00,
2013-01-16 20:02:00,77.6,72.0,29.89,NE,51,3.0,9.0,82,0.00,,,0.07,weatherlink.com 1.10,2013-01-17 00:02:00,
2013-01-16 20:17:00,77.5,71.0,29.89,ENE,64,2.0,7.0,81,0.00,,,0.07,weatherlink.com 1.10,2013-01-17 00:17:00,
2013-01-16 20:32:00,77.3,71.0,29.90,East,86,5.0,7.0,82,0.00,,,0.07,weatherlink.com 1.10,2013-01-17 00:32:00,
2013-01-16 20:47:00,77.2,71.0,29.90,ENE,76,3.0,5.0,82,0.00,,,0.07,weatherlink.com 1.10,2013-01-17 00:47:00,
2013-01-16 21:02:00,77.0,71.0,29.90,East,90,3.0,8.0,82,0.00,,,0.07,weatherlink.com 1.10,2013-01-17 01:02:00,
2013-01-16 21:17:00,77.0,71.0,29.91,ENE,58,3.0,7.0,82,0.00,,,0.07,weatherlink.com 1.10,2013-01-17 01:17:00,
2013-01-16 21:32:00,77.2,71.0,29.91,East,90,3.0,7.0,82,0.00,,,0.07,weatherlink.com 1.10,2013-01-17 01:32:00,
2013-01-16 21:47:00,77.3,71.0,29.91,East,88,5.0,9.0,82,0.00,,,0.07,weatherlink.com 1.10,2013-01-17 01:47:00,
2013-01-16 22:02:00,77.3,71.0,29.91,ENE,69,4.0,10.0,82,0.00,,,0.07,weatherlink.com 1.10,2013-01-17 02:02:00,
2013-01-16 22:17:00,77.2,72.0,29.91,ENE,69,1.0,8.0,83,0.00,,,0.07,weatherlink.com 1.10,2013-01-17 02:17:00,
2013-01-16 22:32:00,77.1,72.0,29.91,ENE,67,5.0,8.0,83,0.00,,,0.07,weatherlink.com 1.10,2013-01-17 02:32:00,
2013-01-16 22:47:00,77.0,71.0,29.91,East,86,2.0,8.0,82,0.00,,,0.07,weatherlink.com 1.10,2013-01-17 02:47:00,
2013-01-16 23:02:00,77.1,72.0,29.91,ENE,78,3.0,7.0,83,0.00,,,0.07,weatherlink.com 1.10,2013-01-17 03:02:00,
2013-01-16 23:17:00,77.3,71.0,29.91,East,88,6.0,9.0,82,0.00,,,0.07,weatherlink.com 1.10,2013-01-17 03:17:00,
2013-01-16 23:32:00,77.3,71.0,29.91,East,94,2.0,10.0,81,0.00,,,0.07,weatherlink.com 1.10,2013-01-17 03:32:00,
2013-01-16 23:47:00,77.2,71.0,29.91,ENE,67,2.0,8.0,82,0.00,,,0.07,weatherlink.com 1.10,2013-01-17 03:47:00,